createdAt,value
2022-12-12T00:00:18.422Z,0.20
2022-12-12T00:02:45.066Z,0.30
2022-12-12T00:05:14.853Z,0.30
2022-12-12T00:07:41.752Z,0.20
2022-12-12T00:10:08.878Z,0.30
2022-12-12T00:12:35.444Z,0.30
2022-12-12T00:15:02.166Z,0.30
2022-12-12T00:17:28.701Z,0.30
2022-12-12T00:19:55.238Z,0.20
2022-12-12T00:22:21.809Z,0.30
2022-12-12T00:24:48.409Z,0.20
2022-12-12T00:27:15.518Z,0.30
2022-12-12T00:29:42.047Z,0.30
2022-12-12T00:32:08.576Z,0.20
2022-12-12T00:34:35.171Z,0.20
2022-12-12T00:37:01.758Z,0.20
2022-12-12T00:39:28.474Z,0.20
2022-12-12T00:41:55.012Z,0.20
2022-12-12T00:44:21.590Z,0.20
2022-12-12T00:46:48.209Z,0.20
2022-12-12T00:49:14.963Z,0.40
2022-12-12T00:51:41.535Z,0.20
2022-12-12T00:54:08.109Z,0.20
2022-12-12T00:56:34.668Z,0.20
2022-12-12T00:59:02.295Z,0.20
2022-12-12T01:01:29.901Z,0.20
2022-12-12T01:03:56.479Z,0.20
2022-12-12T01:06:23.235Z,0.20
2022-12-12T01:08:50.203Z,0.30
2022-12-12T01:11:17.644Z,0.20
2022-12-12T01:13:44.491Z,0.20
2022-12-12T01:16:12.377Z,0.20
2022-12-12T01:18:39.460Z,0.20
2022-12-12T01:21:13.743Z,0.20
2022-12-12T01:23:40.467Z,0.20
2022-12-12T01:26:14.815Z,0.20
2022-12-12T01:28:42.484Z,0.20
2022-12-12T01:31:09.624Z,0.20
2022-12-12T01:33:36.288Z,0.10
2022-12-12T01:36:03.138Z,0.10
2022-12-12T01:38:29.701Z,0.10
2022-12-12T01:40:56.285Z,0.10
2022-12-12T01:43:24.049Z,0.10
2022-12-12T01:45:56.724Z,0.10
2022-12-12T01:48:25.134Z,0.20
2022-12-12T01:50:51.857Z,0.10
2022-12-12T01:53:19.351Z,0.10
2022-12-12T01:55:47.365Z,0.20
2022-12-12T01:58:14.409Z,0.20
2022-12-12T02:00:41.481Z,0.10
2022-12-12T02:03:08.325Z,0.10
2022-12-12T02:05:37.569Z,0.10
2022-12-12T02:08:04.663Z,0.10
2022-12-12T02:10:31.261Z,0.10
2022-12-12T02:13:09.721Z,0.10
2022-12-12T02:15:59.324Z,0.10
2022-12-12T02:18:37.833Z,0.10
2022-12-12T02:21:08.733Z,0.10
2022-12-12T02:23:49.621Z,0.10
2022-12-12T02:26:16.119Z,0.10
2022-12-12T02:28:52.889Z,0.10
2022-12-12T02:31:37.708Z,0.10
2022-12-12T02:34:24.524Z,0.10
2022-12-12T02:37:06.058Z,0.10
2022-12-12T02:39:39.671Z,0.10
2022-12-12T02:42:09.764Z,0.00
2022-12-12T02:44:41.499Z,0.40
2022-12-12T02:47:19.669Z,0.00
2022-12-12T02:49:49.188Z,0.10
2022-12-12T02:52:16.367Z,0.40
2022-12-12T02:54:43.409Z,0.10
2022-12-12T02:57:16.505Z,0.00
2022-12-12T02:59:45.897Z,0.00
2022-12-12T03:02:31.176Z,0.00
2022-12-12T03:05:16.615Z,0.00
2022-12-12T03:07:49.138Z,0.00
2022-12-12T03:10:24.582Z,0.00
2022-12-12T03:12:54.261Z,0.10
2022-12-12T03:15:23.568Z,0.10
2022-12-12T03:18:02.079Z,0.00
2022-12-12T03:20:32.192Z,0.10
2022-12-12T03:23:01.876Z,0.00
2022-12-12T03:25:34.543Z,0.10
2022-12-12T03:28:01.115Z,0.70
2022-12-12T03:30:29.844Z,0.10
2022-12-12T03:32:56.399Z,0.00
2022-12-12T03:35:25.979Z,0.00
2022-12-12T03:38:00.656Z,0.00
2022-12-12T03:40:29.875Z,0.00
2022-12-12T03:42:59.473Z,0.00
2022-12-12T03:45:26.020Z,0.00
2022-12-12T03:48:01.416Z,0.00
2022-12-12T03:50:34.858Z,0.00
2022-12-12T03:53:07.618Z,0.00
2022-12-12T03:55:38.766Z,0.00
2022-12-12T03:58:09.436Z,-0.10
2022-12-12T04:00:37.310Z,0.00
2022-12-12T04:03:03.816Z,0.00
2022-12-12T04:05:30.328Z,0.00
2022-12-12T04:08:02.546Z,-0.10
2022-12-12T04:10:51.781Z,0.00
2022-12-12T04:13:20.133Z,0.00
2022-12-12T04:15:55.911Z,-0.10
2022-12-12T04:18:26.867Z,-0.10
2022-12-12T04:21:18.482Z,0.00
2022-12-12T04:23:53.867Z,-0.10
2022-12-12T04:26:42.134Z,-0.10
2022-12-12T04:29:27.333Z,0.00
2022-12-12T04:31:59.847Z,-0.10
2022-12-12T04:34:29.264Z,0.00
2022-12-12T04:36:55.954Z,-0.10
2022-12-12T04:39:22.946Z,-0.10
2022-12-12T04:41:50.850Z,-0.10
2022-12-12T04:44:18.697Z,0.00
2022-12-12T04:46:48.585Z,-0.10
2022-12-12T04:49:17.737Z,0.00
2022-12-12T04:51:45.382Z,-0.10
2022-12-12T04:54:24.326Z,-0.10
2022-12-12T04:56:53.622Z,-0.10
2022-12-12T04:59:20.300Z,-0.20
2022-12-12T05:02:02.545Z,-0.20
2022-12-12T05:04:32.066Z,-0.20
2022-12-12T05:07:02.730Z,-0.20
2022-12-12T05:09:29.300Z,-0.20
2022-12-12T05:11:55.925Z,-0.20
2022-12-12T05:14:22.590Z,-0.20
2022-12-12T05:16:54.339Z,-0.10
2022-12-12T05:19:20.944Z,-0.10
2022-12-12T05:21:47.569Z,-0.20
2022-12-12T05:24:14.145Z,-0.20
2022-12-12T05:26:41.000Z,-0.20
2022-12-12T05:29:07.962Z,-0.20
2022-12-12T05:31:34.929Z,-0.20
2022-12-12T05:34:01.551Z,-0.20
2022-12-12T05:36:28.100Z,-0.30
2022-12-12T05:38:54.622Z,-0.10
2022-12-12T05:41:21.450Z,-0.20
2022-12-12T05:43:48.081Z,-0.20
2022-12-12T05:46:14.694Z,-0.20
2022-12-12T05:48:41.576Z,-0.20
2022-12-12T05:51:08.123Z,-0.20
2022-12-12T05:53:42.225Z,-0.20
2022-12-12T05:56:11.308Z,-0.20
2022-12-12T05:58:38.277Z,-0.20
2022-12-12T06:01:05.126Z,-0.20
2022-12-12T06:03:32.144Z,-0.20
2022-12-12T06:05:58.755Z,-0.20
2022-12-12T06:08:26.153Z,-0.30
2022-12-12T06:10:52.683Z,-0.30
2022-12-12T06:13:19.189Z,-0.30
2022-12-12T06:15:45.810Z,-0.30
2022-12-12T06:18:12.461Z,-0.40
2022-12-12T06:20:39.021Z,-0.30
2022-12-12T06:23:05.864Z,-0.30
2022-12-12T06:25:32.436Z,-0.20
2022-12-12T06:28:00.131Z,-0.10
2022-12-12T06:30:26.755Z,-0.30
2022-12-12T06:32:53.347Z,-0.30
2022-12-12T06:35:20.060Z,-0.40
2022-12-12T06:37:48.363Z,-0.40
2022-12-12T06:40:14.932Z,-0.40
2022-12-12T06:42:47.726Z,-0.40
2022-12-12T06:45:15.481Z,-0.30
2022-12-12T06:47:42.417Z,-0.30
2022-12-12T06:50:09.413Z,-0.30
2022-12-12T06:52:35.994Z,-0.30
2022-12-12T06:55:02.786Z,-0.30
2022-12-12T06:57:29.283Z,-0.30
2022-12-12T06:59:56.252Z,-0.40
2022-12-12T07:02:29.254Z,-0.40
2022-12-12T07:04:57.004Z,-0.40
2022-12-12T07:07:23.618Z,-0.50
2022-12-12T07:09:50.307Z,-0.50
2022-12-12T07:12:16.874Z,-0.50
2022-12-12T07:14:43.404Z,-0.50
2022-12-12T07:17:09.968Z,-0.50
2022-12-12T07:19:36.510Z,-0.70
2022-12-12T07:22:09.408Z,-0.60
2022-12-12T07:24:36.871Z,-0.60
2022-12-12T07:27:03.559Z,-0.60
2022-12-12T07:29:30.090Z,-0.50
2022-12-12T07:31:56.604Z,-0.40
2022-12-12T07:34:23.156Z,-0.50
2022-12-12T07:36:49.669Z,-0.50
2022-12-12T07:39:20.705Z,-0.50
2022-12-12T07:41:48.263Z,-0.50
2022-12-12T07:44:15.575Z,-0.50
2022-12-12T07:46:42.172Z,-0.50
2022-12-12T07:49:08.795Z,-0.40
2022-12-12T07:51:35.354Z,-0.40
2022-12-12T07:54:01.883Z,-0.50
2022-12-12T07:56:28.546Z,-0.40
2022-12-12T07:58:55.544Z,-0.40
2022-12-12T08:01:24.048Z,-0.40
2022-12-12T08:03:51.180Z,-0.30
2022-12-12T08:06:18.375Z,-0.40
2022-12-12T08:08:45.366Z,-0.20
2022-12-12T08:11:13.599Z,-0.20
2022-12-12T08:13:41.028Z,-0.30
2022-12-12T08:16:12.217Z,-0.30
2022-12-12T08:18:38.772Z,-0.30
2022-12-12T08:21:09.550Z,-0.20
2022-12-12T08:23:36.436Z,-0.10
2022-12-12T08:26:04.200Z,-0.10
2022-12-12T08:28:30.734Z,-0.10
2022-12-12T08:30:57.319Z,-0.10
2022-12-12T08:33:24.057Z,0.00
2022-12-12T08:35:51.219Z,0.10
2022-12-12T08:38:17.819Z,0.20
2022-12-12T08:40:44.324Z,0.30
2022-12-12T08:43:10.963Z,0.40
2022-12-12T08:45:38.521Z,0.50
2022-12-12T08:48:06.569Z,0.60
2022-12-12T08:50:33.767Z,0.60
2022-12-12T08:53:00.447Z,0.70
2022-12-12T08:55:27.010Z,0.80
2022-12-12T08:57:53.514Z,0.80
2022-12-12T09:00:20.463Z,1.00
2022-12-12T09:02:47.072Z,1.00
2022-12-12T09:05:14.076Z,1.10
2022-12-12T09:07:40.995Z,1.10
2022-12-12T09:10:08.991Z,1.30
2022-12-12T09:12:41.285Z,1.40
2022-12-12T09:15:09.143Z,1.40
2022-12-12T09:17:35.715Z,1.40
2022-12-12T09:20:02.979Z,1.40
2022-12-12T09:22:29.507Z,1.50
2022-12-12T09:24:56.116Z,1.30
2022-12-12T09:27:22.657Z,1.30
2022-12-12T09:29:49.346Z,1.30
2022-12-12T09:32:16.717Z,1.30
2022-12-12T09:34:46.687Z,1.30
2022-12-12T09:37:13.279Z,1.10
2022-12-12T09:39:39.897Z,1.00
2022-12-12T09:42:10.843Z,0.90
2022-12-12T09:44:37.926Z,1.00
2022-12-12T09:47:07.174Z,0.90
2022-12-12T09:49:44.216Z,0.80
2022-12-12T09:52:14.154Z,0.80
2022-12-12T09:54:40.692Z,0.70
2022-12-12T09:57:15.510Z,0.70
2022-12-12T09:59:45.616Z,0.80
2022-12-12T10:02:28.490Z,0.90
2022-12-12T10:05:07.171Z,0.80
2022-12-12T10:07:52.704Z,1.10
2022-12-12T10:10:25.179Z,1.20
2022-12-12T10:12:52.235Z,1.20
2022-12-12T10:15:29.621Z,1.30
2022-12-12T10:17:59.111Z,1.30
2022-12-12T10:20:27.532Z,1.30
2022-12-12T10:23:01.798Z,1.40
2022-12-12T10:25:31.994Z,1.30
2022-12-12T10:28:10.532Z,1.40
2022-12-12T10:30:41.188Z,1.40
2022-12-12T10:33:20.488Z,1.40
2022-12-12T10:35:52.904Z,1.40
2022-12-12T10:38:25.323Z,1.50
2022-12-12T10:40:58.312Z,1.30
2022-12-12T10:43:47.888Z,1.50
2022-12-12T10:46:16.522Z,1.40
2022-12-12T10:48:44.047Z,1.50
2022-12-12T10:51:11.958Z,1.50
2022-12-12T10:53:39.901Z,1.50
2022-12-12T10:56:23.013Z,1.50
2022-12-12T10:58:54.664Z,1.60
2022-12-12T11:01:38.504Z,1.60
2022-12-12T11:04:08.838Z,1.70
2022-12-12T11:06:43.700Z,1.60
2022-12-12T11:09:29.199Z,1.50
2022-12-12T11:12:00.930Z,1.50
2022-12-12T11:14:35.521Z,1.40
2022-12-12T11:17:05.721Z,1.30
2022-12-12T11:19:38.866Z,1.30
2022-12-12T11:22:05.570Z,1.30
2022-12-12T11:24:33.156Z,1.20
2022-12-12T11:27:04.236Z,1.30
2022-12-12T11:29:30.780Z,1.30
2022-12-12T11:31:58.109Z,1.40
2022-12-12T11:34:26.275Z,1.10
2022-12-12T11:36:53.046Z,1.10
2022-12-12T11:39:20.798Z,1.20
2022-12-12T11:41:57.605Z,1.20
2022-12-12T11:44:27.732Z,1.10
2022-12-12T11:46:54.273Z,1.00
2022-12-12T11:49:20.877Z,1.00
2022-12-12T11:51:48.082Z,1.00
2022-12-12T11:54:16.097Z,1.00
2022-12-12T11:56:44.775Z,1.00
2022-12-12T11:59:11.253Z,1.10
2022-12-12T12:01:52.508Z,1.10
2022-12-12T12:04:24.005Z,1.20
2022-12-12T12:06:56.744Z,1.20
2022-12-12T12:09:27.187Z,1.20
2022-12-12T12:12:04.089Z,1.20
2022-12-12T12:14:49.512Z,1.30
2022-12-12T12:17:35.117Z,1.30
2022-12-12T12:20:07.758Z,1.40
2022-12-12T12:22:53.491Z,1.50
2022-12-12T12:25:44.007Z,1.40
2022-12-12T12:28:29.435Z,1.40
2022-12-12T12:31:11.433Z,1.40
2022-12-12T12:33:47.210Z,1.30
2022-12-12T12:36:33.839Z,1.50
2022-12-12T12:39:11.239Z,1.60
2022-12-12T12:41:54.738Z,1.60
2022-12-12T12:44:30.210Z,1.60
2022-12-12T12:47:18.507Z,1.60
2022-12-12T12:50:12.400Z,1.60
2022-12-12T12:52:41.619Z,1.70
2022-12-12T12:55:16.617Z,1.80
2022-12-12T12:57:44.370Z,1.70
2022-12-12T13:00:19.875Z,1.70
2022-12-12T13:02:54.000Z,1.60
2022-12-12T13:05:23.280Z,1.70
2022-12-12T13:07:53.831Z,1.60
2022-12-12T13:10:24.727Z,1.70
2022-12-12T13:13:12.578Z,1.70
2022-12-12T13:15:41.613Z,1.70
2022-12-12T13:18:11.691Z,1.80
2022-12-12T13:20:39.753Z,1.90
2022-12-12T13:23:19.812Z,1.80
2022-12-12T13:25:58.338Z,1.90
2022-12-12T13:28:34.193Z,1.90
2022-12-12T13:31:27.054Z,2.00
2022-12-12T13:33:56.256Z,2.00
2022-12-12T13:36:30.324Z,2.00
2022-12-12T13:39:01.283Z,2.00
2022-12-12T13:41:47.785Z,1.80
2022-12-12T13:44:32.990Z,1.70
2022-12-12T13:46:59.751Z,1.70
2022-12-12T13:49:29.477Z,1.70
2022-12-12T13:52:14.792Z,1.70
2022-12-12T13:54:43.109Z,1.70
2022-12-12T13:57:11.901Z,1.70
2022-12-12T14:00:01.886Z,1.60
2022-12-12T14:02:35.393Z,1.60
2022-12-12T14:05:07.499Z,1.50
2022-12-12T14:07:34.410Z,1.60
2022-12-12T14:10:02.550Z,1.60
2022-12-12T14:12:33.239Z,1.50
2022-12-12T14:14:59.795Z,1.50
2022-12-12T14:17:27.679Z,1.50
2022-12-12T14:19:56.267Z,1.50
2022-12-12T14:22:48.839Z,1.50
2022-12-12T14:25:15.344Z,1.50
2022-12-12T14:27:49.016Z,1.60
2022-12-12T14:30:36.339Z,1.50
2022-12-12T14:33:18.017Z,1.50
2022-12-12T14:35:52.780Z,1.50
2022-12-12T14:38:33.901Z,1.50
2022-12-12T14:41:01.887Z,2.00
2022-12-12T14:43:30.448Z,1.30
2022-12-12T14:45:58.274Z,1.20
2022-12-12T14:48:31.177Z,1.20
2022-12-12T14:51:11.892Z,1.20
2022-12-12T14:53:38.445Z,1.20
2022-12-12T14:56:09.691Z,1.20
2022-12-12T14:58:44.948Z,1.10
2022-12-12T15:01:11.814Z,1.00
2022-12-12T15:03:41.806Z,1.10
2022-12-12T15:06:23.766Z,1.10
2022-12-12T15:08:51.343Z,1.10
2022-12-12T15:11:22.146Z,1.00
2022-12-12T15:13:49.767Z,1.30
2022-12-12T15:16:16.783Z,0.80
2022-12-12T15:18:43.487Z,0.90
2022-12-12T15:21:10.066Z,0.80
2022-12-12T15:23:36.668Z,0.80
2022-12-12T15:26:03.191Z,0.80
2022-12-12T15:28:32.617Z,0.80
2022-12-12T15:31:00.976Z,0.80
2022-12-12T15:33:27.770Z,0.70
2022-12-12T15:36:02.184Z,0.60
2022-12-12T15:38:30.014Z,0.50
2022-12-12T15:41:01.170Z,0.60
2022-12-12T15:43:28.758Z,0.50
2022-12-12T15:46:00.040Z,0.50
2022-12-12T15:48:26.978Z,0.50
2022-12-12T15:50:59.089Z,0.40
2022-12-12T15:53:29.883Z,0.40
2022-12-12T15:55:59.225Z,0.30
2022-12-12T15:58:30.850Z,0.30
2022-12-12T16:01:06.464Z,0.20
2022-12-12T16:03:33.995Z,0.30
2022-12-12T16:06:03.096Z,0.20
2022-12-12T16:08:37.397Z,0.20
2022-12-12T16:11:27.049Z,0.20
2022-12-12T16:13:53.712Z,0.10
2022-12-12T16:16:38.860Z,0.20
2022-12-12T16:19:14.921Z,0.10
2022-12-12T16:21:42.324Z,0.10
2022-12-12T16:24:13.122Z,0.20
2022-12-12T16:26:39.615Z,0.10
2022-12-12T16:29:06.159Z,0.10
2022-12-12T16:31:32.883Z,-0.10
2022-12-12T16:34:01.898Z,-0.20
2022-12-12T16:36:28.471Z,-0.20
2022-12-12T16:38:55.033Z,-0.20
2022-12-12T16:41:22.799Z,-0.10
2022-12-12T16:43:49.686Z,-0.10
2022-12-12T16:46:21.259Z,-0.10
2022-12-12T16:48:47.918Z,-0.10
2022-12-12T16:51:15.876Z,-0.10
2022-12-12T16:53:42.699Z,-0.20
2022-12-12T16:56:10.589Z,-0.30
2022-12-12T16:58:37.632Z,-0.30
2022-12-12T17:01:04.386Z,-0.40
2022-12-12T17:03:32.712Z,-0.40
2022-12-12T17:05:59.380Z,-0.50
2022-12-12T17:08:26.157Z,-0.40
2022-12-12T17:10:53.420Z,-0.40
2022-12-12T17:13:37.822Z,-0.40
2022-12-12T17:16:04.568Z,-0.40
2022-12-12T17:18:31.241Z,-0.50
2022-12-12T17:20:57.924Z,-0.50
2022-12-12T17:23:27.323Z,-0.50
2022-12-12T17:26:00.750Z,-0.60
2022-12-12T17:28:29.490Z,-0.60
2022-12-12T17:30:56.055Z,-0.70
2022-12-12T17:33:22.605Z,-0.70
2022-12-12T17:35:56.929Z,-0.70
2022-12-12T17:38:23.448Z,-0.80
2022-12-12T17:40:53.729Z,-0.80
2022-12-12T17:43:20.366Z,-0.90
2022-12-12T17:45:56.045Z,-1.10
2022-12-12T17:48:22.659Z,-1.00
2022-12-12T17:50:55.583Z,-1.00
2022-12-12T17:53:22.128Z,-1.00
2022-12-12T17:55:51.427Z,-1.00
2022-12-12T17:58:25.128Z,-1.00
2022-12-12T18:00:56.031Z,-1.10
2022-12-12T18:03:22.694Z,-1.10
2022-12-12T18:05:49.260Z,-1.20
2022-12-12T18:08:15.885Z,-1.30
2022-12-12T18:10:42.505Z,-1.30
2022-12-12T18:13:09.050Z,-1.30
2022-12-12T18:15:35.578Z,-1.30
2022-12-12T18:18:02.140Z,-1.20
2022-12-12T18:20:31.528Z,-1.40
2022-12-12T18:22:58.254Z,-1.50
2022-12-12T18:25:25.243Z,-1.50
2022-12-12T18:27:51.772Z,-1.50
2022-12-12T18:30:18.323Z,-1.60
2022-12-12T18:32:46.175Z,-1.70
2022-12-12T18:35:12.725Z,-1.70
2022-12-12T18:37:39.285Z,-1.80
2022-12-12T18:40:07.026Z,-1.90
2022-12-12T18:42:33.588Z,-1.90
2022-12-12T18:45:00.136Z,-1.90
2022-12-12T18:47:26.709Z,-2.00
2022-12-12T18:49:53.313Z,-2.00
2022-12-12T18:52:19.935Z,-2.00
2022-12-12T18:54:46.521Z,-2.00
2022-12-12T18:57:13.521Z,-2.10
2022-12-12T18:59:40.056Z,-2.10
2022-12-12T19:02:06.605Z,-2.20
2022-12-12T19:04:33.341Z,-2.20
2022-12-12T19:06:59.864Z,-2.30
2022-12-12T19:09:26.421Z,-2.30
2022-12-12T19:11:58.478Z,-2.40
2022-12-12T19:14:40.461Z,-2.40
2022-12-12T19:17:14.608Z,-2.40
2022-12-12T19:19:41.159Z,-2.50
2022-12-12T19:22:24.708Z,-2.40
2022-12-12T19:24:54.194Z,-2.40
2022-12-12T19:27:20.724Z,-2.50
2022-12-12T19:29:47.369Z,-2.50
2022-12-12T19:32:13.907Z,-2.50
2022-12-12T19:34:40.515Z,-2.60
2022-12-12T19:37:07.051Z,-2.60
2022-12-12T19:39:33.693Z,-2.70
2022-12-12T19:42:00.231Z,-2.70
2022-12-12T19:44:26.858Z,-2.70
2022-12-12T19:46:53.373Z,-2.80
2022-12-12T19:49:19.948Z,-2.80
2022-12-12T19:51:46.590Z,-2.90
2022-12-12T19:54:17.468Z,-2.90
2022-12-12T19:56:44.382Z,-2.90
2022-12-12T19:59:11.955Z,-3.00
2022-12-12T20:01:38.940Z,-2.80
2022-12-12T20:04:25.599Z,-2.80
2022-12-12T20:06:52.518Z,-3.10
2022-12-12T20:09:26.778Z,-3.00
2022-12-12T20:11:53.740Z,-3.00
2022-12-12T20:14:21.401Z,-3.10
2022-12-12T20:16:48.177Z,-3.10
2022-12-12T20:19:15.204Z,-3.00
2022-12-12T20:22:03.311Z,-3.10
2022-12-12T20:24:31.648Z,-3.10
2022-12-12T20:26:59.311Z,-3.10
2022-12-12T20:29:26.311Z,-3.00
2022-12-12T20:31:52.903Z,-3.10
2022-12-12T20:34:22.488Z,-3.20
2022-12-12T20:36:50.136Z,-3.10
2022-12-12T20:39:19.243Z,-3.10
2022-12-12T20:41:46.148Z,-3.20
2022-12-12T20:44:13.851Z,-3.50
2022-12-12T20:46:41.653Z,-3.10
2022-12-12T20:49:09.431Z,-3.10
2022-12-12T20:54:24.146Z,-3.00
2022-12-12T20:56:51.306Z,-3.20
2022-12-12T20:59:18.090Z,-3.20
2022-12-12T21:01:44.827Z,-3.30
2022-12-12T21:04:11.480Z,-3.30
2022-12-12T21:06:39.566Z,-3.20
2022-12-12T21:09:07.712Z,-3.20
2022-12-12T21:11:34.464Z,-3.20
2022-12-12T21:14:01.265Z,-3.20
2022-12-12T21:16:31.014Z,-3.30
2022-12-12T21:19:02.235Z,-3.30
2022-12-12T21:21:29.205Z,-3.40
2022-12-12T21:23:56.059Z,-3.40
2022-12-12T21:26:28.759Z,-3.50
2022-12-12T21:28:56.671Z,-3.50
2022-12-12T21:31:24.826Z,-3.40
2022-12-12T21:33:51.430Z,-3.50
2022-12-12T21:36:19.505Z,-3.50
2022-12-12T21:38:46.983Z,-3.50
2022-12-12T21:41:15.705Z,-3.60
2022-12-12T21:43:43.537Z,-3.60
2022-12-12T21:46:14.103Z,-3.50
2022-12-12T21:48:40.975Z,-3.60
2022-12-12T21:51:09.441Z,-3.60
2022-12-12T21:53:36.326Z,-3.60
2022-12-12T21:56:06.709Z,-3.50
2022-12-12T21:58:33.956Z,-3.60
2022-12-12T22:01:11.172Z,-3.70
2022-12-12T22:03:37.881Z,-3.60
2022-12-12T22:06:11.426Z,-3.60
2022-12-12T22:08:38.324Z,-3.60
2022-12-12T22:11:07.124Z,-3.70
2022-12-12T22:13:40.089Z,-3.70
2022-12-12T22:16:08.709Z,-3.50
2022-12-12T22:18:35.265Z,-3.60
2022-12-12T22:21:05.701Z,-3.70
2022-12-12T22:23:33.944Z,-3.70
2022-12-12T22:26:00.768Z,-3.80
2022-12-12T22:28:28.492Z,-3.80
2022-12-12T22:30:55.691Z,-3.80
2022-12-12T22:33:22.408Z,-3.70
2022-12-12T22:35:49.050Z,-3.80
2022-12-12T22:38:15.641Z,-3.70
2022-12-12T22:40:42.164Z,-3.80
2022-12-12T22:43:08.644Z,-3.80
2022-12-12T22:45:35.221Z,-3.90
2022-12-12T22:48:01.713Z,-3.90
2022-12-12T22:50:28.218Z,-3.90
2022-12-12T22:52:54.775Z,-4.00
2022-12-12T22:55:21.302Z,-3.90
2022-12-12T22:57:48.920Z,-3.90
2022-12-12T23:00:15.820Z,-4.00
2022-12-12T23:02:42.378Z,-4.00
2022-12-12T23:05:09.337Z,-4.00
2022-12-12T23:07:36.273Z,-4.10
2022-12-12T23:10:02.979Z,-4.10
2022-12-12T23:12:29.898Z,-4.20
2022-12-12T23:14:56.408Z,-4.30
2022-12-12T23:17:23.115Z,-4.30
2022-12-12T23:19:49.643Z,-4.30
2022-12-12T23:22:16.413Z,-4.30
2022-12-12T23:24:42.922Z,-4.40
2022-12-12T23:27:09.464Z,-4.40
2022-12-12T23:29:35.997Z,-4.50
2022-12-12T23:32:03.068Z,-4.50
2022-12-12T23:34:29.856Z,-4.50
2022-12-12T23:36:56.909Z,-4.50
2022-12-12T23:39:24.703Z,-4.50
2022-12-12T23:41:51.344Z,-4.50
2022-12-12T23:44:18.792Z,-4.60
2022-12-12T23:46:45.684Z,-3.90
2022-12-12T23:49:12.199Z,-4.60
2022-12-12T23:51:40.272Z,-4.70
2022-12-12T23:54:09.018Z,-4.70
2022-12-12T23:56:35.592Z,-4.70
2022-12-12T23:59:02.262Z,-4.70
